Ogden Hinckley Airport Ogden US
ICAO: KOGD
IATA: OGD
Category: Medium
Scheduled Services: No

Elevation: 4473 ft
TransAlt. 18000 ft.

Airport Communications:
APP/DEP:121.1
ASOS:125.55
ATIS:125.55
CTAF:118.7
GND:121.7
CEDAR CITY RDO:122.45
TWR:118.7
UNICOM:122.95

KOGD Zoom In..

If you have problems with the map follow the link
https://www.worldairports.se/pages/airport.php?
ICAO=KOGD

Runways:

(A) RW 03 length 8103 ft width 150 ft
ILS 111.70 / hdg 31

(B) RW 07 length 3618 ft width 150 ft
---- / hdg 75

(C) RW 16 length 5195 ft width 100 ft
---- / hdg 165

(D) RW 21 length 8103 ft width 150 ft
---- / hdg 211

(E) RW 25 length 3618 ft width 150 ft
---- / hdg 255

(F) RW 34 length 5195 ft width 100 ft
---- / hdg 345

Location; KOGD
Day. 23 / Time. 17.53 Zulu
* Altimeter: 30.12
* Temperature: 14° c. 57.2°f.
* Wind from: 160° Speed 08 kn.
Dewpoint: 07° c.
Visibility: 10 Statute Miles.
Clouds: Broken 4900 ft.
Clouds: Broken 7000 ft.
Clouds: Overcast 11000 ft.

KOGD 231753Z 16008KT 10SM BKN049 BKN070 OVC110 14/07 A3012 RMK AO2 SLP171 60004 T01440072 10144 20094 51006


Wind From 160°
Speed 08 kn.

 
 
jpsmedia.com for Web Design worldairports.se 2018   terms of use